sensor_id;sensor_type;location;lat;lon;timestamp;P1;durP1;ratioP1;P2;durP2;ratioP2
42682;SDS011;28293;50.930;3.464;2022-07-22T00:00:25;14.10;;;5.40;;
42682;SDS011;28293;50.930;3.464;2022-07-22T00:02:52;12.35;;;5.05;;
42682;SDS011;28293;50.930;3.464;2022-07-22T00:05:18;13.32;;;4.57;;
42682;SDS011;28293;50.930;3.464;2022-07-22T00:07:43;14.63;;;5.00;;
42682;SDS011;28293;50.930;3.464;2022-07-22T00:10:09;17.20;;;5.57;;
42682;SDS011;28293;50.930;3.464;2022-07-22T00:12:39;13.43;;;4.22;;
42682;SDS011;28293;50.930;3.464;2022-07-22T00:15:05;12.52;;;4.85;;
42682;SDS011;28293;50.930;3.464;2022-07-22T00:17:32;12.98;;;5.72;;
42682;SDS011;28293;50.930;3.464;2022-07-22T00:19:58;12.10;;;5.10;;
42682;SDS011;28293;50.930;3.464;2022-07-22T00:22:23;9.88;;;4.55;;
42682;SDS011;28293;50.930;3.464;2022-07-22T00:24:49;10.60;;;4.45;;
42682;SDS011;28293;50.930;3.464;2022-07-22T00:27:15;12.48;;;5.13;;
42682;SDS011;28293;50.930;3.464;2022-07-22T00:29:41;11.18;;;4.97;;
42682;SDS011;28293;50.930;3.464;2022-07-22T00:32:06;13.32;;;4.80;;
42682;SDS011;28293;50.930;3.464;2022-07-22T00:34:32;11.05;;;4.28;;
42682;SDS011;28293;50.930;3.464;2022-07-22T00:36:58;12.77;;;4.90;;
42682;SDS011;28293;50.930;3.464;2022-07-22T00:39:23;12.57;;;5.40;;
42682;SDS011;28293;50.930;3.464;2022-07-22T00:41:49;12.00;;;4.95;;
42682;SDS011;28293;50.930;3.464;2022-07-22T00:44:15;12.07;;;5.22;;
42682;SDS011;28293;50.930;3.464;2022-07-22T00:46:41;11.95;;;5.82;;
42682;SDS011;28293;50.930;3.464;2022-07-22T00:49:08;14.73;;;5.22;;
42682;SDS011;28293;50.930;3.464;2022-07-22T00:51:34;15.10;;;6.28;;
42682;SDS011;28293;50.930;3.464;2022-07-22T00:54:00;16.05;;;5.85;;
42682;SDS011;28293;50.930;3.464;2022-07-22T00:56:27;13.35;;;5.85;;
42682;SDS011;28293;50.930;3.464;2022-07-22T00:58:54;12.35;;;5.93;;
42682;SDS011;28293;50.930;3.464;2022-07-22T01:01:21;11.55;;;5.78;;
42682;SDS011;28293;50.930;3.464;2022-07-22T01:03:47;14.75;;;5.95;;
42682;SDS011;28293;50.930;3.464;2022-07-22T01:06:13;13.63;;;6.05;;
42682;SDS011;28293;50.930;3.464;2022-07-22T01:08:39;13.50;;;6.40;;
42682;SDS011;28293;50.930;3.464;2022-07-22T01:11:06;14.45;;;6.85;;
42682;SDS011;28293;50.930;3.464;2022-07-22T01:13:33;13.35;;;6.25;;
42682;SDS011;28293;50.930;3.464;2022-07-22T01:15:58;13.48;;;6.50;;
42682;SDS011;28293;50.930;3.464;2022-07-22T01:18:24;15.60;;;6.25;;
42682;SDS011;28293;50.930;3.464;2022-07-22T01:20:50;12.68;;;5.25;;
42682;SDS011;28293;50.930;3.464;2022-07-22T01:23:15;11.98;;;5.88;;
42682;SDS011;28293;50.930;3.464;2022-07-22T01:25:41;12.90;;;5.70;;
42682;SDS011;28293;50.930;3.464;2022-07-22T01:28:07;12.40;;;5.70;;
42682;SDS011;28293;50.930;3.464;2022-07-22T01:30:32;14.82;;;6.05;;
42682;SDS011;28293;50.930;3.464;2022-07-22T01:32:58;12.02;;;5.78;;
42682;SDS011;28293;50.930;3.464;2022-07-22T01:35:24;13.90;;;6.10;;
42682;SDS011;28293;50.930;3.464;2022-07-22T01:37:49;10.77;;;5.53;;
42682;SDS011;28293;50.930;3.464;2022-07-22T01:40:15;12.30;;;5.90;;
42682;SDS011;28293;50.930;3.464;2022-07-22T01:42:41;11.05;;;5.90;;
42682;SDS011;28293;50.930;3.464;2022-07-22T01:45:06;11.38;;;5.70;;
42682;SDS011;28293;50.930;3.464;2022-07-22T01:47:32;12.30;;;5.63;;
42682;SDS011;28293;50.930;3.464;2022-07-22T01:49:58;9.88;;;5.53;;
42682;SDS011;28293;50.930;3.464;2022-07-22T01:52:24;9.82;;;5.47;;
42682;SDS011;28293;50.930;3.464;2022-07-22T01:54:49;11.73;;;5.13;;
42682;SDS011;28293;50.930;3.464;2022-07-22T01:57:15;12.15;;;5.70;;
42682;SDS011;28293;50.930;3.464;2022-07-22T01:59:40;11.93;;;5.32;;
42682;SDS011;28293;50.930;3.464;2022-07-22T02:02:06;12.77;;;5.90;;
42682;SDS011;28293;50.930;3.464;2022-07-22T02:04:32;12.85;;;6.07;;
42682;SDS011;28293;50.930;3.464;2022-07-22T02:06:57;15.02;;;6.38;;
42682;SDS011;28293;50.930;3.464;2022-07-22T02:09:23;16.52;;;8.13;;
42682;SDS011;28293;50.930;3.464;2022-07-22T02:11:49;12.95;;;6.72;;
42682;SDS011;28293;50.930;3.464;2022-07-22T02:14:14;11.80;;;6.30;;
42682;SDS011;28293;50.930;3.464;2022-07-22T02:16:40;11.80;;;5.50;;
42682;SDS011;28293;50.930;3.464;2022-07-22T02:19:06;12.68;;;5.70;;
42682;SDS011;28293;50.930;3.464;2022-07-22T02:21:32;12.27;;;6.72;;
42682;SDS011;28293;50.930;3.464;2022-07-22T02:23:57;13.57;;;6.25;;
42682;SDS011;28293;50.930;3.464;2022-07-22T02:26:23;10.55;;;5.68;;
42682;SDS011;28293;50.930;3.464;2022-07-22T02:28:49;10.57;;;6.50;;
42682;SDS011;28293;50.930;3.464;2022-07-22T02:31:14;11.63;;;5.70;;
42682;SDS011;28293;50.930;3.464;2022-07-22T02:33:40;11.60;;;6.22;;
42682;SDS011;28293;50.930;3.464;2022-07-22T02:36:06;11.95;;;6.40;;
42682;SDS011;28293;50.930;3.464;2022-07-22T02:38:32;15.75;;;6.60;;
42682;SDS011;28293;50.930;3.464;2022-07-22T02:40:57;12.45;;;6.38;;
42682;SDS011;28293;50.930;3.464;2022-07-22T02:43:23;11.68;;;6.07;;
42682;SDS011;28293;50.930;3.464;2022-07-22T02:45:48;13.15;;;6.22;;
42682;SDS011;28293;50.930;3.464;2022-07-22T02:48:14;12.60;;;6.57;;
42682;SDS011;28293;50.930;3.464;2022-07-22T02:50:44;13.55;;;5.97;;
42682;SDS011;28293;50.930;3.464;2022-07-22T02:53:13;13.60;;;6.55;;
42682;SDS011;28293;50.930;3.464;2022-07-22T02:55:39;13.80;;;6.45;;
42682;SDS011;28293;50.930;3.464;2022-07-22T02:58:05;12.10;;;5.88;;
42682;SDS011;28293;50.930;3.464;2022-07-22T03:00:32;10.95;;;6.00;;
42682;SDS011;28293;50.930;3.464;2022-07-22T03:02:58;13.30;;;6.47;;
42682;SDS011;28293;50.930;3.464;2022-07-22T03:05:24;17.08;;;6.65;;
42682;SDS011;28293;50.930;3.464;2022-07-22T03:07:49;17.67;;;6.80;;
42682;SDS011;28293;50.930;3.464;2022-07-22T03:10:15;15.27;;;6.90;;
42682;SDS011;28293;50.930;3.464;2022-07-22T03:12:40;14.50;;;6.50;;
42682;SDS011;28293;50.930;3.464;2022-07-22T03:15:06;12.32;;;6.10;;
42682;SDS011;28293;50.930;3.464;2022-07-22T03:17:35;12.02;;;6.22;;
42682;SDS011;28293;50.930;3.464;2022-07-22T03:20:03;17.38;;;7.70;;
42682;SDS011;28293;50.930;3.464;2022-07-22T03:22:30;13.63;;;6.95;;
42682;SDS011;28293;50.930;3.464;2022-07-22T03:24:55;13.00;;;6.40;;
42682;SDS011;28293;50.930;3.464;2022-07-22T03:27:21;15.05;;;6.85;;
42682;SDS011;28293;50.930;3.464;2022-07-22T03:29:47;10.65;;;5.50;;
42682;SDS011;28293;50.930;3.464;2022-07-22T03:32:12;13.65;;;6.20;;
42682;SDS011;28293;50.930;3.464;2022-07-22T03:34:38;14.50;;;6.35;;
42682;SDS011;28293;50.930;3.464;2022-07-22T03:37:04;16.48;;;6.60;;
42682;SDS011;28293;50.930;3.464;2022-07-22T03:39:29;10.82;;;6.05;;
42682;SDS011;28293;50.930;3.464;2022-07-22T03:41:55;14.40;;;6.47;;
42682;SDS011;28293;50.930;3.464;2022-07-22T03:44:21;11.43;;;6.30;;
42682;SDS011;28293;50.930;3.464;2022-07-22T03:46:46;14.98;;;6.40;;
42682;SDS011;28293;50.930;3.464;2022-07-22T03:49:12;17.65;;;7.55;;
42682;SDS011;28293;50.930;3.464;2022-07-22T03:51:38;15.48;;;7.43;;
42682;SDS011;28293;50.930;3.464;2022-07-22T03:54:03;15.55;;;7.10;;
42682;SDS011;28293;50.930;3.464;2022-07-22T03:56:29;14.02;;;7.32;;
42682;SDS011;28293;50.930;3.464;2022-07-22T03:58:54;13.63;;;7.60;;
42682;SDS011;28293;50.930;3.464;2022-07-22T04:01:20;19.95;;;8.25;;
42682;SDS011;28293;50.930;3.464;2022-07-22T04:03:46;14.25;;;7.38;;
42682;SDS011;28293;50.930;3.464;2022-07-22T04:06:13;14.10;;;7.57;;
42682;SDS011;28293;50.930;3.464;2022-07-22T04:08:39;14.25;;;7.55;;
42682;SDS011;28293;50.930;3.464;2022-07-22T04:11:05;13.52;;;7.70;;
42682;SDS011;28293;50.930;3.464;2022-07-22T04:13:30;15.15;;;7.68;;
42682;SDS011;28293;50.930;3.464;2022-07-22T04:15:56;14.85;;;8.00;;
42682;SDS011;28293;50.930;3.464;2022-07-22T04:18:22;12.73;;;8.05;;
42682;SDS011;28293;50.930;3.464;2022-07-22T04:20:47;17.35;;;7.38;;
42682;SDS011;28293;50.930;3.464;2022-07-22T04:23:13;15.32;;;7.93;;
42682;SDS011;28293;50.930;3.464;2022-07-22T04:25:39;14.73;;;7.20;;
42682;SDS011;28293;50.930;3.464;2022-07-22T04:28:05;15.38;;;7.90;;
42682;SDS011;28293;50.930;3.464;2022-07-22T04:30:31;16.52;;;7.47;;
42682;SDS011;28293;50.930;3.464;2022-07-22T04:32:57;17.17;;;7.90;;
42682;SDS011;28293;50.930;3.464;2022-07-22T04:35:23;15.90;;;8.15;;
42682;SDS011;28293;50.930;3.464;2022-07-22T04:37:49;17.33;;;7.13;;
42682;SDS011;28293;50.930;3.464;2022-07-22T04:40:15;13.23;;;7.47;;
42682;SDS011;28293;50.930;3.464;2022-07-22T04:42:41;17.13;;;7.35;;
42682;SDS011;28293;50.930;3.464;2022-07-22T04:45:06;13.65;;;8.18;;
42682;SDS011;28293;50.930;3.464;2022-07-22T04:47:32;14.52;;;7.72;;
42682;SDS011;28293;50.930;3.464;2022-07-22T04:49:58;13.93;;;7.90;;
42682;SDS011;28293;50.930;3.464;2022-07-22T04:52:23;14.15;;;7.97;;
42682;SDS011;28293;50.930;3.464;2022-07-22T04:54:49;14.10;;;8.00;;
42682;SDS011;28293;50.930;3.464;2022-07-22T04:57:15;14.93;;;7.80;;
42682;SDS011;28293;50.930;3.464;2022-07-22T04:59:41;15.93;;;7.38;;
42682;SDS011;28293;50.930;3.464;2022-07-22T05:02:07;15.43;;;7.85;;
42682;SDS011;28293;50.930;3.464;2022-07-22T05:04:32;17.92;;;7.90;;
42682;SDS011;28293;50.930;3.464;2022-07-22T05:06:58;14.65;;;8.43;;
42682;SDS011;28293;50.930;3.464;2022-07-22T05:09:24;15.38;;;7.78;;
42682;SDS011;28293;50.930;3.464;2022-07-22T05:11:49;19.35;;;7.85;;
42682;SDS011;28293;50.930;3.464;2022-07-22T05:14:15;14.20;;;7.82;;
42682;SDS011;28293;50.930;3.464;2022-07-22T05:16:41;16.30;;;7.43;;
42682;SDS011;28293;50.930;3.464;2022-07-22T05:19:06;15.15;;;7.60;;
42682;SDS011;28293;50.930;3.464;2022-07-22T05:21:32;15.93;;;8.23;;
42682;SDS011;28293;50.930;3.464;2022-07-22T05:23:58;14.80;;;8.38;;
42682;SDS011;28293;50.930;3.464;2022-07-22T05:26:24;14.43;;;7.82;;
42682;SDS011;28293;50.930;3.464;2022-07-22T05:28:50;13.98;;;8.00;;
42682;SDS011;28293;50.930;3.464;2022-07-22T05:31:16;16.48;;;7.63;;
42682;SDS011;28293;50.930;3.464;2022-07-22T05:33:41;19.23;;;7.88;;
42682;SDS011;28293;50.930;3.464;2022-07-22T05:36:07;15.20;;;8.10;;
42682;SDS011;28293;50.930;3.464;2022-07-22T05:38:34;17.95;;;8.48;;
42682;SDS011;28293;50.930;3.464;2022-07-22T05:41:00;14.40;;;8.00;;
42682;SDS011;28293;50.930;3.464;2022-07-22T05:43:26;15.90;;;7.50;;
42682;SDS011;28293;50.930;3.464;2022-07-22T05:45:52;14.38;;;7.57;;
42682;SDS011;28293;50.930;3.464;2022-07-22T05:48:18;13.35;;;7.55;;
42682;SDS011;28293;50.930;3.464;2022-07-22T05:50:43;18.17;;;7.63;;
42682;SDS011;28293;50.930;3.464;2022-07-22T05:53:09;13.80;;;7.53;;
42682;SDS011;28293;50.930;3.464;2022-07-22T05:55:35;13.40;;;6.38;;
42682;SDS011;28293;50.930;3.464;2022-07-22T05:58:01;12.55;;;6.68;;
42682;SDS011;28293;50.930;3.464;2022-07-22T06:00:26;13.68;;;6.85;;
42682;SDS011;28293;50.930;3.464;2022-07-22T06:02:52;16.60;;;6.90;;
42682;SDS011;28293;50.930;3.464;2022-07-22T06:05:18;11.45;;;6.10;;
42682;SDS011;28293;50.930;3.464;2022-07-22T06:07:44;15.27;;;6.65;;
42682;SDS011;28293;50.930;3.464;2022-07-22T06:10:10;11.38;;;6.05;;
42682;SDS011;28293;50.930;3.464;2022-07-22T06:12:35;12.30;;;5.72;;
42682;SDS011;28293;50.930;3.464;2022-07-22T06:15:01;16.30;;;5.57;;
42682;SDS011;28293;50.930;3.464;2022-07-22T06:17:27;9.50;;;4.35;;
42682;SDS011;28293;50.930;3.464;2022-07-22T06:19:53;13.88;;;4.50;;
42682;SDS011;28293;50.930;3.464;2022-07-22T06:22:18;13.43;;;4.95;;
42682;SDS011;28293;50.930;3.464;2022-07-22T06:24:44;10.15;;;4.50;;
42682;SDS011;28293;50.930;3.464;2022-07-22T06:27:10;11.23;;;4.22;;
42682;SDS011;28293;50.930;3.464;2022-07-22T06:29:36;11.77;;;4.03;;
42682;SDS011;28293;50.930;3.464;2022-07-22T06:32:01;11.25;;;4.10;;
42682;SDS011;28293;50.930;3.464;2022-07-22T06:34:27;15.75;;;4.95;;
42682;SDS011;28293;50.930;3.464;2022-07-22T06:36:54;12.68;;;4.45;;
42682;SDS011;28293;50.930;3.464;2022-07-22T06:39:20;10.15;;;3.90;;
42682;SDS011;28293;50.930;3.464;2022-07-22T06:41:46;9.75;;;3.95;;
42682;SDS011;28293;50.930;3.464;2022-07-22T06:44:12;12.27;;;4.15;;
42682;SDS011;28293;50.930;3.464;2022-07-22T06:46:37;8.88;;;3.67;;
42682;SDS011;28293;50.930;3.464;2022-07-22T06:49:03;10.95;;;3.85;;
42682;SDS011;28293;50.930;3.464;2022-07-22T06:51:29;9.27;;;3.50;;
42682;SDS011;28293;50.930;3.464;2022-07-22T06:53:55;10.90;;;3.38;;
42682;SDS011;28293;50.930;3.464;2022-07-22T06:56:21;11.98;;;3.20;;
42682;SDS011;28293;50.930;3.464;2022-07-22T06:58:47;9.32;;;3.20;;
42682;SDS011;28293;50.930;3.464;2022-07-22T07:01:12;11.07;;;3.60;;
42682;SDS011;28293;50.930;3.464;2022-07-22T07:03:38;15.82;;;4.65;;
42682;SDS011;28293;50.930;3.464;2022-07-22T07:06:06;9.48;;;4.05;;
42682;SDS011;28293;50.930;3.464;2022-07-22T07:08:33;9.63;;;3.83;;
42682;SDS011;28293;50.930;3.464;2022-07-22T07:10:59;14.18;;;4.65;;
42682;SDS011;28293;50.930;3.464;2022-07-22T07:13:24;10.35;;;3.40;;
42682;SDS011;28293;50.930;3.464;2022-07-22T07:15:50;11.48;;;3.38;;
42682;SDS011;28293;50.930;3.464;2022-07-22T07:18:16;12.48;;;4.00;;
42682;SDS011;28293;50.930;3.464;2022-07-22T07:20:42;12.82;;;3.45;;
42682;SDS011;28293;50.930;3.464;2022-07-22T07:23:08;8.77;;;3.78;;
42682;SDS011;28293;50.930;3.464;2022-07-22T07:25:33;10.07;;;3.80;;
42682;SDS011;28293;50.930;3.464;2022-07-22T07:27:59;10.75;;;3.95;;
42682;SDS011;28293;50.930;3.464;2022-07-22T07:30:25;8.82;;;3.50;;
42682;SDS011;28293;50.930;3.464;2022-07-22T07:32:51;11.70;;;3.63;;
42682;SDS011;28293;50.930;3.464;2022-07-22T07:35:17;10.27;;;3.63;;
42682;SDS011;28293;50.930;3.464;2022-07-22T07:37:43;10.15;;;3.40;;
42682;SDS011;28293;50.930;3.464;2022-07-22T07:40:09;15.02;;;4.07;;
42682;SDS011;28293;50.930;3.464;2022-07-22T07:42:35;13.40;;;4.43;;
42682;SDS011;28293;50.930;3.464;2022-07-22T07:45:00;13.05;;;4.03;;
42682;SDS011;28293;50.930;3.464;2022-07-22T07:47:26;13.52;;;4.20;;
42682;SDS011;28293;50.930;3.464;2022-07-22T07:49:52;13.95;;;4.18;;
42682;SDS011;28293;50.930;3.464;2022-07-22T07:52:18;12.15;;;4.25;;
42682;SDS011;28293;50.930;3.464;2022-07-22T07:54:44;11.25;;;4.00;;
42682;SDS011;28293;50.930;3.464;2022-07-22T07:57:10;12.07;;;4.00;;
42682;SDS011;28293;50.930;3.464;2022-07-22T07:59:39;10.60;;;4.15;;
42682;SDS011;28293;50.930;3.464;2022-07-22T08:02:06;11.63;;;3.83;;
42682;SDS011;28293;50.930;3.464;2022-07-22T08:04:32;12.45;;;3.65;;
42682;SDS011;28293;50.930;3.464;2022-07-22T08:06:59;8.43;;;3.67;;
42682;SDS011;28293;50.930;3.464;2022-07-22T08:09:25;12.07;;;3.88;;
42682;SDS011;28293;50.930;3.464;2022-07-22T08:11:51;10.10;;;4.15;;
42682;SDS011;28293;50.930;3.464;2022-07-22T08:14:17;11.13;;;4.38;;
42682;SDS011;28293;50.930;3.464;2022-07-22T08:16:44;9.60;;;3.45;;
42682;SDS011;28293;50.930;3.464;2022-07-22T08:19:09;9.63;;;4.25;;
42682;SDS011;28293;50.930;3.464;2022-07-22T08:21:35;10.55;;;4.05;;
42682;SDS011;28293;50.930;3.464;2022-07-22T08:24:01;11.68;;;3.70;;
42682;SDS011;28293;50.930;3.464;2022-07-22T08:26:26;8.82;;;3.25;;
42682;SDS011;28293;50.930;3.464;2022-07-22T08:28:52;9.65;;;3.45;;
42682;SDS011;28293;50.930;3.464;2022-07-22T08:31:18;9.02;;;3.53;;
42682;SDS011;28293;50.930;3.464;2022-07-22T08:33:44;10.38;;;4.05;;
42682;SDS011;28293;50.930;3.464;2022-07-22T08:36:10;12.23;;;4.20;;
42682;SDS011;28293;50.930;3.464;2022-07-22T08:38:35;12.23;;;4.28;;
42682;SDS011;28293;50.930;3.464;2022-07-22T08:41:02;11.73;;;4.13;;
42682;SDS011;28293;50.930;3.464;2022-07-22T08:43:28;11.38;;;4.00;;
42682;SDS011;28293;50.930;3.464;2022-07-22T08:45:56;9.82;;;3.88;;
42682;SDS011;28293;50.930;3.464;2022-07-22T08:48:22;11.25;;;3.50;;
42682;SDS011;28293;50.930;3.464;2022-07-22T08:50:48;9.18;;;3.97;;
42682;SDS011;28293;50.930;3.464;2022-07-22T08:53:14;10.32;;;3.63;;
42682;SDS011;28293;50.930;3.464;2022-07-22T08:55:41;13.45;;;4.35;;
42682;SDS011;28293;50.930;3.464;2022-07-22T08:58:08;10.35;;;3.55;;
42682;SDS011;28293;50.930;3.464;2022-07-22T09:00:33;11.50;;;3.88;;
42682;SDS011;28293;50.930;3.464;2022-07-22T09:02:59;14.63;;;4.68;;
42682;SDS011;28293;50.930;3.464;2022-07-22T09:05:26;12.23;;;4.63;;
42682;SDS011;28293;50.930;3.464;2022-07-22T09:07:59;14.13;;;4.80;;
42682;SDS011;28293;50.930;3.464;2022-07-22T09:10:29;12.68;;;5.15;;
42682;SDS011;28293;50.930;3.464;2022-07-22T09:13:01;14.25;;;6.75;;
42682;SDS011;28293;50.930;3.464;2022-07-22T09:15:30;13.13;;;6.95;;
42682;SDS011;28293;50.930;3.464;2022-07-22T09:17:58;14.40;;;7.60;;
42682;SDS011;28293;50.930;3.464;2022-07-22T09:20:24;11.02;;;6.68;;
42682;SDS011;28293;50.930;3.464;2022-07-22T09:22:52;12.13;;;6.95;;
42682;SDS011;28293;50.930;3.464;2022-07-22T09:27:45;16.52;;;6.63;;
42682;SDS011;28293;50.930;3.464;2022-07-22T09:30:15;13.20;;;6.72;;
42682;SDS011;28293;50.930;3.464;2022-07-22T09:32:52;14.27;;;7.25;;
42682;SDS011;28293;50.930;3.464;2022-07-22T09:35:21;15.88;;;6.72;;
42682;SDS011;28293;50.930;3.464;2022-07-22T09:37:55;14.93;;;6.95;;
42682;SDS011;28293;50.930;3.464;2022-07-22T09:42:55;11.20;;;6.25;;
42682;SDS011;28293;50.930;3.464;2022-07-22T09:45:23;9.90;;;5.55;;
42682;SDS011;28293;50.930;3.464;2022-07-22T09:47:50;12.73;;;6.82;;
42682;SDS011;28293;50.930;3.464;2022-07-22T09:52:55;11.73;;;6.38;;
42682;SDS011;28293;50.930;3.464;2022-07-22T09:55:23;11.25;;;6.15;;
42682;SDS011;28293;50.930;3.464;2022-07-22T09:57:50;13.48;;;6.60;;
42682;SDS011;28293;50.930;3.464;2022-07-22T10:00:21;12.18;;;7.28;;
42682;SDS011;28293;50.930;3.464;2022-07-22T10:05:22;14.10;;;8.10;;
42682;SDS011;28293;50.930;3.464;2022-07-22T10:07:53;13.35;;;7.38;;
42682;SDS011;28293;50.930;3.464;2022-07-22T10:10:21;16.85;;;7.07;;
42682;SDS011;28293;50.930;3.464;2022-07-22T10:12:51;12.43;;;8.18;;
42682;SDS011;28293;50.930;3.464;2022-07-22T10:15:19;12.63;;;7.57;;
42682;SDS011;28293;50.930;3.464;2022-07-22T10:17:47;11.35;;;7.30;;
42682;SDS011;28293;50.930;3.464;2022-07-22T10:20:17;13.82;;;7.60;;
42682;SDS011;28293;50.930;3.464;2022-07-22T10:22:55;11.73;;;8.68;;
42682;SDS011;28293;50.930;3.464;2022-07-22T10:25:30;13.85;;;8.82;;
42682;SDS011;28293;50.930;3.464;2022-07-22T10:27:59;14.85;;;9.50;;
42682;SDS011;28293;50.930;3.464;2022-07-22T10:30:37;14.50;;;10.13;;
42682;SDS011;28293;50.930;3.464;2022-07-22T10:33:12;14.65;;;11.30;;
42682;SDS011;28293;50.930;3.464;2022-07-22T10:38:08;14.77;;;11.07;;
42682;SDS011;28293;50.930;3.464;2022-07-22T10:43:26;16.55;;;12.77;;
42682;SDS011;28293;50.930;3.464;2022-07-22T10:46:02;19.63;;;12.70;;
42682;SDS011;28293;50.930;3.464;2022-07-22T10:53:42;13.73;;;12.25;;
42682;SDS011;28293;50.930;3.464;2022-07-22T10:56:23;15.27;;;13.60;;
42682;SDS011;28293;50.930;3.464;2022-07-22T10:59:10;16.20;;;13.80;;
42682;SDS011;28293;50.930;3.464;2022-07-22T11:01:44;18.60;;;13.43;;
42682;SDS011;28293;50.930;3.464;2022-07-22T11:06:42;17.40;;;12.68;;
42682;SDS011;28293;50.930;3.464;2022-07-22T11:09:10;14.68;;;10.73;;
42682;SDS011;28293;50.930;3.464;2022-07-22T11:16:44;13.07;;;9.68;;
42682;SDS011;28293;50.930;3.464;2022-07-22T11:19:12;14.93;;;9.63;;
42682;SDS011;28293;50.930;3.464;2022-07-22T11:21:38;13.07;;;8.38;;
42682;SDS011;28293;50.930;3.464;2022-07-22T11:24:05;13.65;;;9.00;;
42682;SDS011;28293;50.930;3.464;2022-07-22T11:26:34;11.25;;;7.72;;
42682;SDS011;28293;50.930;3.464;2022-07-22T11:29:30;10.07;;;7.40;;
42682;SDS011;28293;50.930;3.464;2022-07-22T11:32:01;10.63;;;7.55;;
42682;SDS011;28293;50.930;3.464;2022-07-22T11:34:29;11.20;;;8.57;;
42682;SDS011;28293;50.930;3.464;2022-07-22T11:36:55;14.38;;;8.20;;
42682;SDS011;28293;50.930;3.464;2022-07-22T11:39:26;13.60;;;8.75;;
42682;SDS011;28293;50.930;3.464;2022-07-22T11:41:54;14.32;;;9.07;;
42682;SDS011;28293;50.930;3.464;2022-07-22T11:44:22;12.20;;;8.70;;
42682;SDS011;28293;50.930;3.464;2022-07-22T11:46:51;11.23;;;8.23;;
42682;SDS011;28293;50.930;3.464;2022-07-22T11:49:19;13.63;;;8.77;;
42682;SDS011;28293;50.930;3.464;2022-07-22T11:51:46;12.38;;;8.82;;
42682;SDS011;28293;50.930;3.464;2022-07-22T11:54:12;12.98;;;9.00;;
42682;SDS011;28293;50.930;3.464;2022-07-22T11:56:39;15.48;;;10.00;;
42682;SDS011;28293;50.930;3.464;2022-07-22T11:59:05;12.57;;;9.48;;
42682;SDS011;28293;50.930;3.464;2022-07-22T12:01:34;13.65;;;9.98;;
42682;SDS011;28293;50.930;3.464;2022-07-22T12:06:32;12.57;;;8.80;;
42682;SDS011;28293;50.930;3.464;2022-07-22T12:11:37;15.10;;;9.38;;
42682;SDS011;28293;50.930;3.464;2022-07-22T12:14:12;12.27;;;8.32;;
42682;SDS011;28293;50.930;3.464;2022-07-22T12:16:40;13.35;;;10.05;;
42682;SDS011;28293;50.930;3.464;2022-07-22T12:19:08;13.60;;;9.82;;
42682;SDS011;28293;50.930;3.464;2022-07-22T12:21:36;14.90;;;10.90;;
42682;SDS011;28293;50.930;3.464;2022-07-22T12:24:25;15.43;;;10.43;;
42682;SDS011;28293;50.930;3.464;2022-07-22T12:26:56;16.23;;;11.65;;
42682;SDS011;28293;50.930;3.464;2022-07-22T12:29:24;14.45;;;10.48;;
42682;SDS011;28293;50.930;3.464;2022-07-22T12:31:53;13.68;;;9.35;;
42682;SDS011;28293;50.930;3.464;2022-07-22T12:34:29;14.30;;;11.90;;
42682;SDS011;28293;50.930;3.464;2022-07-22T12:36:55;14.20;;;11.20;;
42682;SDS011;28293;50.930;3.464;2022-07-22T12:39:21;14.77;;;12.13;;
42682;SDS011;28293;50.930;3.464;2022-07-22T12:41:49;13.63;;;10.60;;
42682;SDS011;28293;50.930;3.464;2022-07-22T12:44:20;13.10;;;11.43;;
42682;SDS011;28293;50.930;3.464;2022-07-22T12:46:52;14.50;;;11.80;;
42682;SDS011;28293;50.930;3.464;2022-07-22T12:49:21;15.27;;;11.93;;
42682;SDS011;28293;50.930;3.464;2022-07-22T12:52:08;12.70;;;11.23;;
42682;SDS011;28293;50.930;3.464;2022-07-22T12:54:39;13.90;;;11.38;;
42682;SDS011;28293;50.930;3.464;2022-07-22T12:57:06;12.88;;;10.80;;
42682;SDS011;28293;50.930;3.464;2022-07-22T12:59:33;14.48;;;10.93;;
42682;SDS011;28293;50.930;3.464;2022-07-22T13:02:01;16.48;;;11.80;;
42682;SDS011;28293;50.930;3.464;2022-07-22T13:04:27;18.88;;;13.75;;
42682;SDS011;28293;50.930;3.464;2022-07-22T13:06:53;15.45;;;13.85;;
42682;SDS011;28293;50.930;3.464;2022-07-22T13:09:19;15.75;;;12.88;;
42682;SDS011;28293;50.930;3.464;2022-07-22T13:11:45;18.63;;;15.40;;
42682;SDS011;28293;50.930;3.464;2022-07-22T13:14:11;17.00;;;12.90;;
42682;SDS011;28293;50.930;3.464;2022-07-22T13:16:38;14.07;;;11.10;;
42682;SDS011;28293;50.930;3.464;2022-07-22T13:19:04;12.93;;;10.90;;
42682;SDS011;28293;50.930;3.464;2022-07-22T13:21:30;18.90;;;16.15;;
42682;SDS011;28293;50.930;3.464;2022-07-22T13:23:56;17.27;;;15.32;;
42682;SDS011;28293;50.930;3.464;2022-07-22T13:26:22;17.40;;;15.65;;
42682;SDS011;28293;50.930;3.464;2022-07-22T13:28:49;19.35;;;16.58;;
42682;SDS011;28293;50.930;3.464;2022-07-22T13:31:15;17.75;;;14.57;;
42682;SDS011;28293;50.930;3.464;2022-07-22T13:33:41;16.00;;;14.20;;
42682;SDS011;28293;50.930;3.464;2022-07-22T13:36:06;15.63;;;13.40;;
42682;SDS011;28293;50.930;3.464;2022-07-22T13:38:33;16.48;;;14.43;;
42682;SDS011;28293;50.930;3.464;2022-07-22T13:40:58;15.48;;;13.85;;
42682;SDS011;28293;50.930;3.464;2022-07-22T13:43:24;15.52;;;13.50;;
42682;SDS011;28293;50.930;3.464;2022-07-22T13:45:51;20.90;;;12.95;;
42682;SDS011;28293;50.930;3.464;2022-07-22T13:48:17;14.70;;;13.10;;
42682;SDS011;28293;50.930;3.464;2022-07-22T13:50:44;30.33;;;16.45;;
42682;SDS011;28293;50.930;3.464;2022-07-22T13:53:10;17.73;;;14.80;;
42682;SDS011;28293;50.930;3.464;2022-07-22T13:55:40;17.45;;;15.35;;
42682;SDS011;28293;50.930;3.464;2022-07-22T13:58:06;20.55;;;16.60;;
42682;SDS011;28293;50.930;3.464;2022-07-22T14:00:33;20.38;;;17.00;;
42682;SDS011;28293;50.930;3.464;2022-07-22T14:02:59;20.42;;;17.52;;
42682;SDS011;28293;50.930;3.464;2022-07-22T14:05:25;20.77;;;18.58;;
42682;SDS011;28293;50.930;3.464;2022-07-22T14:07:51;19.52;;;16.55;;
42682;SDS011;28293;50.930;3.464;2022-07-22T14:10:17;16.25;;;14.43;;
42682;SDS011;28293;50.930;3.464;2022-07-22T14:12:43;19.52;;;15.30;;
42682;SDS011;28293;50.930;3.464;2022-07-22T14:15:09;17.05;;;14.43;;
42682;SDS011;28293;50.930;3.464;2022-07-22T14:17:36;16.42;;;14.10;;
42682;SDS011;28293;50.930;3.464;2022-07-22T14:20:02;14.73;;;13.02;;
42682;SDS011;28293;50.930;3.464;2022-07-22T14:22:30;16.75;;;13.65;;
42682;SDS011;28293;50.930;3.464;2022-07-22T14:24:55;18.25;;;13.50;;
42682;SDS011;28293;50.930;3.464;2022-07-22T14:27:21;14.35;;;12.27;;
42682;SDS011;28293;50.930;3.464;2022-07-22T14:29:47;14.65;;;10.80;;
42682;SDS011;28293;50.930;3.464;2022-07-22T14:32:13;15.13;;;10.80;;
42682;SDS011;28293;50.930;3.464;2022-07-22T14:34:38;17.33;;;9.88;;
42682;SDS011;28293;50.930;3.464;2022-07-22T14:37:04;20.80;;;12.35;;
42682;SDS011;28293;50.930;3.464;2022-07-22T14:39:30;17.45;;;11.85;;
42682;SDS011;28293;50.930;3.464;2022-07-22T14:41:56;15.60;;;11.15;;
42682;SDS011;28293;50.930;3.464;2022-07-22T14:44:22;14.65;;;11.35;;
42682;SDS011;28293;50.930;3.464;2022-07-22T14:46:48;15.00;;;10.75;;
42682;SDS011;28293;50.930;3.464;2022-07-22T14:49:13;14.68;;;10.68;;
42682;SDS011;28293;50.930;3.464;2022-07-22T14:51:40;15.40;;;10.35;;
42682;SDS011;28293;50.930;3.464;2022-07-22T14:54:06;15.02;;;10.02;;
42682;SDS011;28293;50.930;3.464;2022-07-22T14:56:34;14.43;;;9.82;;
42682;SDS011;28293;50.930;3.464;2022-07-22T14:59:00;15.38;;;9.85;;
42682;SDS011;28293;50.930;3.464;2022-07-22T15:01:27;14.68;;;9.60;;
42682;SDS011;28293;50.930;3.464;2022-07-22T15:03:53;10.63;;;8.05;;